sensor_id;sensor_type;location;lat;lon;timestamp;temperature;humidity
51029;DHT22;37054;52.054;8.600;2022-08-01T00:00:23;25.10;67.50
51029;DHT22;37054;52.054;8.600;2022-08-01T00:02:52;25.10;67.40
51029;DHT22;37054;52.054;8.600;2022-08-01T00:05:17;25.10;67.40
51029;DHT22;37054;52.054;8.600;2022-08-01T00:07:43;25.10;67.30
51029;DHT22;37054;52.054;8.600;2022-08-01T00:10:10;25.20;67.30
51029;DHT22;37054;52.054;8.600;2022-08-01T00:12:36;25.20;67.20
51029;DHT22;37054;52.054;8.600;2022-08-01T00:15:01;25.20;67.20
51029;DHT22;37054;52.054;8.600;2022-08-01T00:17:27;25.30;67.20
51029;DHT22;37054;52.054;8.600;2022-08-01T00:19:52;25.30;67.10
51029;DHT22;37054;52.054;8.600;2022-08-01T00:22:21;25.30;67.00
51029;DHT22;37054;52.054;8.600;2022-08-01T00:24:48;25.30;66.90
51029;DHT22;37054;52.054;8.600;2022-08-01T00:27:14;25.30;66.90
51029;DHT22;37054;52.054;8.600;2022-08-01T00:29:39;25.30;66.90
51029;DHT22;37054;52.054;8.600;2022-08-01T00:32:04;25.30;66.90
51029;DHT22;37054;52.054;8.600;2022-08-01T00:34:30;25.30;66.80
51029;DHT22;37054;52.054;8.600;2022-08-01T00:36:55;25.30;66.80
51029;DHT22;37054;52.054;8.600;2022-08-01T00:39:21;25.30;66.80
51029;DHT22;37054;52.054;8.600;2022-08-01T00:41:47;25.30;66.80
51029;DHT22;37054;52.054;8.600;2022-08-01T00:44:13;25.30;66.80
51029;DHT22;37054;52.054;8.600;2022-08-01T00:46:38;25.30;66.80
51029;DHT22;37054;52.054;8.600;2022-08-01T00:49:04;25.30;66.70
51029;DHT22;37054;52.054;8.600;2022-08-01T00:51:29;25.30;66.70
51029;DHT22;37054;52.054;8.600;2022-08-01T00:53:55;25.30;66.70
51029;DHT22;37054;52.054;8.600;2022-08-01T00:56:21;25.30;66.70
51029;DHT22;37054;52.054;8.600;2022-08-01T00:58:48;25.30;66.70
51029;DHT22;37054;52.054;8.600;2022-08-01T01:01:14;25.30;66.70
51029;DHT22;37054;52.054;8.600;2022-08-01T01:03:40;25.30;66.70
51029;DHT22;37054;52.054;8.600;2022-08-01T01:06:19;25.30;66.70
51029;DHT22;37054;52.054;8.600;2022-08-01T01:11:40;25.20;66.70
51029;DHT22;37054;52.054;8.600;2022-08-01T01:14:10;25.20;66.70
51029;DHT22;37054;52.054;8.600;2022-08-01T01:16:38;25.20;66.60
51029;DHT22;37054;52.054;8.600;2022-08-01T01:19:05;25.20;66.70
51029;DHT22;37054;52.054;8.600;2022-08-01T01:21:47;25.20;66.60
51029;DHT22;37054;52.054;8.600;2022-08-01T01:24:32;25.10;66.60
51029;DHT22;37054;52.054;8.600;2022-08-01T01:29:41;25.10;66.70
51029;DHT22;37054;52.054;8.600;2022-08-01T01:32:20;25.10;66.70
51029;DHT22;37054;52.054;8.600;2022-08-01T01:34:47;25.10;66.70
51029;DHT22;37054;52.054;8.600;2022-08-01T01:37:16;25.10;66.80
51029;DHT22;37054;52.054;8.600;2022-08-01T01:39:44;25.10;66.80
51029;DHT22;37054;52.054;8.600;2022-08-01T01:42:11;25.00;66.80
51029;DHT22;37054;52.054;8.600;2022-08-01T01:44:37;25.00;66.70
51029;DHT22;37054;52.054;8.600;2022-08-01T01:47:06;24.90;66.80
51029;DHT22;37054;52.054;8.600;2022-08-01T01:49:32;24.80;66.90
51029;DHT22;37054;52.054;8.600;2022-08-01T01:51:58;24.70;67.00
51029;DHT22;37054;52.054;8.600;2022-08-01T01:54:28;24.70;67.10
51029;DHT22;37054;52.054;8.600;2022-08-01T01:56:56;24.60;67.10
51029;DHT22;37054;52.054;8.600;2022-08-01T01:59:24;24.50;67.20
51029;DHT22;37054;52.054;8.600;2022-08-01T02:01:51;24.50;67.30
51029;DHT22;37054;52.054;8.600;2022-08-01T02:04:17;24.40;67.40
51029;DHT22;37054;52.054;8.600;2022-08-01T02:06:43;24.40;67.40
51029;DHT22;37054;52.054;8.600;2022-08-01T02:09:10;24.30;67.30
51029;DHT22;37054;52.054;8.600;2022-08-01T02:11:36;24.30;67.30
51029;DHT22;37054;52.054;8.600;2022-08-01T02:14:03;24.30;67.20
51029;DHT22;37054;52.054;8.600;2022-08-01T02:16:29;24.20;67.20
51029;DHT22;37054;52.054;8.600;2022-08-01T02:18:56;24.20;67.30
51029;DHT22;37054;52.054;8.600;2022-08-01T02:21:25;24.30;67.30
51029;DHT22;37054;52.054;8.600;2022-08-01T02:23:50;24.30;67.30
51029;DHT22;37054;52.054;8.600;2022-08-01T02:26:17;24.30;67.20
51029;DHT22;37054;52.054;8.600;2022-08-01T02:28:45;24.30;67.10
51029;DHT22;37054;52.054;8.600;2022-08-01T02:31:13;24.30;67.10
51029;DHT22;37054;52.054;8.600;2022-08-01T02:33:46;24.30;67.20
51029;DHT22;37054;52.054;8.600;2022-08-01T02:36:13;24.30;67.20
51029;DHT22;37054;52.054;8.600;2022-08-01T02:38:41;24.30;67.10
51029;DHT22;37054;52.054;8.600;2022-08-01T02:41:08;24.40;67.10
51029;DHT22;37054;52.054;8.600;2022-08-01T02:43:36;24.30;67.00
51029;DHT22;37054;52.054;8.600;2022-08-01T02:46:02;24.30;67.10
51029;DHT22;37054;52.054;8.600;2022-08-01T02:48:30;24.20;67.20
51029;DHT22;37054;52.054;8.600;2022-08-01T02:50:57;24.20;67.30
51029;DHT22;37054;52.054;8.600;2022-08-01T02:53:23;24.10;67.50
51029;DHT22;37054;52.054;8.600;2022-08-01T02:55:51;24.10;67.50
51029;DHT22;37054;52.054;8.600;2022-08-01T02:58:17;24.00;67.50
51029;DHT22;37054;52.054;8.600;2022-08-01T03:00:44;24.10;67.40
51029;DHT22;37054;52.054;8.600;2022-08-01T03:03:10;24.10;67.40
51029;DHT22;37054;52.054;8.600;2022-08-01T03:05:36;24.10;67.20
51029;DHT22;37054;52.054;8.600;2022-08-01T03:08:02;24.10;67.20
51029;DHT22;37054;52.054;8.600;2022-08-01T03:10:29;24.10;67.20
51029;DHT22;37054;52.054;8.600;2022-08-01T03:12:55;24.20;67.30
51029;DHT22;37054;52.054;8.600;2022-08-01T03:15:22;24.20;67.20
51029;DHT22;37054;52.054;8.600;2022-08-01T03:17:48;24.20;67.10
51029;DHT22;37054;52.054;8.600;2022-08-01T03:20:15;24.20;67.20
51029;DHT22;37054;52.054;8.600;2022-08-01T03:22:42;24.30;67.20
51029;DHT22;37054;52.054;8.600;2022-08-01T03:25:09;24.30;67.10
51029;DHT22;37054;52.054;8.600;2022-08-01T03:27:36;24.40;67.10
51029;DHT22;37054;52.054;8.600;2022-08-01T03:30:03;24.30;67.10
51029;DHT22;37054;52.054;8.600;2022-08-01T03:32:30;24.40;67.10
51029;DHT22;37054;52.054;8.600;2022-08-01T03:34:55;24.40;67.00
51029;DHT22;37054;52.054;8.600;2022-08-01T03:37:22;24.40;66.90
51029;DHT22;37054;52.054;8.600;2022-08-01T03:40:02;24.50;66.90
51029;DHT22;37054;52.054;8.600;2022-08-01T03:42:44;24.60;66.90
51029;DHT22;37054;52.054;8.600;2022-08-01T03:45:21;24.60;66.80
51029;DHT22;37054;52.054;8.600;2022-08-01T03:47:49;24.60;66.70
51029;DHT22;37054;52.054;8.600;2022-08-01T03:50:16;24.70;66.60
51029;DHT22;37054;52.054;8.600;2022-08-01T03:52:45;24.70;66.60
51029;DHT22;37054;52.054;8.600;2022-08-01T03:55:11;24.70;66.50
51029;DHT22;37054;52.054;8.600;2022-08-01T03:57:38;24.70;66.50
51029;DHT22;37054;52.054;8.600;2022-08-01T04:00:05;24.70;66.40
51029;DHT22;37054;52.054;8.600;2022-08-01T04:02:34;24.70;66.40
51029;DHT22;37054;52.054;8.600;2022-08-01T04:05:00;24.70;66.40
51029;DHT22;37054;52.054;8.600;2022-08-01T04:07:27;24.70;66.40
51029;DHT22;37054;52.054;8.600;2022-08-01T04:09:53;24.70;66.40
51029;DHT22;37054;52.054;8.600;2022-08-01T04:12:19;24.80;66.50
51029;DHT22;37054;52.054;8.600;2022-08-01T04:14:44;24.80;66.40
51029;DHT22;37054;52.054;8.600;2022-08-01T04:17:10;24.80;66.40
51029;DHT22;37054;52.054;8.600;2022-08-01T04:19:35;24.90;66.30
51029;DHT22;37054;52.054;8.600;2022-08-01T04:22:01;24.90;66.20
51029;DHT22;37054;52.054;8.600;2022-08-01T04:24:28;25.00;66.30
51029;DHT22;37054;52.054;8.600;2022-08-01T04:26:55;25.00;66.10
51029;DHT22;37054;52.054;8.600;2022-08-01T04:29:21;25.00;66.10
51029;DHT22;37054;52.054;8.600;2022-08-01T04:31:47;25.00;66.10
51029;DHT22;37054;52.054;8.600;2022-08-01T04:34:15;25.00;66.10
51029;DHT22;37054;52.054;8.600;2022-08-01T04:36:41;25.00;66.10
51029;DHT22;37054;52.054;8.600;2022-08-01T04:39:07;25.00;66.20
51029;DHT22;37054;52.054;8.600;2022-08-01T04:41:34;25.10;66.20
51029;DHT22;37054;52.054;8.600;2022-08-01T04:44:01;25.20;66.20
51029;DHT22;37054;52.054;8.600;2022-08-01T04:46:28;25.10;66.00
51029;DHT22;37054;52.054;8.600;2022-08-01T04:48:54;25.10;66.10
51029;DHT22;37054;52.054;8.600;2022-08-01T04:51:21;25.00;66.30
51029;DHT22;37054;52.054;8.600;2022-08-01T04:53:57;24.90;66.50
51029;DHT22;37054;52.054;8.600;2022-08-01T04:56:23;24.80;66.70
51029;DHT22;37054;52.054;8.600;2022-08-01T04:58:49;24.80;66.90
51029;DHT22;37054;52.054;8.600;2022-08-01T05:01:34;24.80;67.00
51029;DHT22;37054;52.054;8.600;2022-08-01T05:04:00;24.80;66.90
51029;DHT22;37054;52.054;8.600;2022-08-01T05:06:25;24.90;66.90
51029;DHT22;37054;52.054;8.600;2022-08-01T05:08:51;25.00;66.80
51029;DHT22;37054;52.054;8.600;2022-08-01T05:11:16;25.00;66.70
51029;DHT22;37054;52.054;8.600;2022-08-01T05:13:41;25.10;66.60
51029;DHT22;37054;52.054;8.600;2022-08-01T05:16:07;25.20;66.60
51029;DHT22;37054;52.054;8.600;2022-08-01T05:18:32;25.20;66.60
51029;DHT22;37054;52.054;8.600;2022-08-01T05:20:58;25.30;66.60
51029;DHT22;37054;52.054;8.600;2022-08-01T05:23:23;25.30;66.60
51029;DHT22;37054;52.054;8.600;2022-08-01T05:25:49;25.40;66.50
51029;DHT22;37054;52.054;8.600;2022-08-01T05:28:15;25.50;66.50
51029;DHT22;37054;52.054;8.600;2022-08-01T05:30:40;25.60;66.30
51029;DHT22;37054;52.054;8.600;2022-08-01T05:33:06;25.70;66.30
51029;DHT22;37054;52.054;8.600;2022-08-01T05:35:31;25.70;66.30
51029;DHT22;37054;52.054;8.600;2022-08-01T05:37:57;25.80;66.40
51029;DHT22;37054;52.054;8.600;2022-08-01T05:40:22;25.90;66.40
51029;DHT22;37054;52.054;8.600;2022-08-01T05:42:48;26.00;66.30
51029;DHT22;37054;52.054;8.600;2022-08-01T05:45:13;26.10;66.30
51029;DHT22;37054;52.054;8.600;2022-08-01T05:47:39;26.20;66.30
51029;DHT22;37054;52.054;8.600;2022-08-01T05:50:04;26.20;66.20
51029;DHT22;37054;52.054;8.600;2022-08-01T05:52:30;26.20;66.10
51029;DHT22;37054;52.054;8.600;2022-08-01T05:54:56;26.30;66.00
51029;DHT22;37054;52.054;8.600;2022-08-01T05:57:21;26.30;65.90
51029;DHT22;37054;52.054;8.600;2022-08-01T05:59:47;26.30;66.00
51029;DHT22;37054;52.054;8.600;2022-08-01T06:02:12;26.40;65.90
51029;DHT22;37054;52.054;8.600;2022-08-01T06:04:37;26.40;65.80
51029;DHT22;37054;52.054;8.600;2022-08-01T06:07:05;26.40;65.50
51029;DHT22;37054;52.054;8.600;2022-08-01T06:09:31;26.30;65.60
51029;DHT22;37054;52.054;8.600;2022-08-01T06:11:56;26.40;65.10
51029;DHT22;37054;52.054;8.600;2022-08-01T06:14:22;26.30;65.30
51029;DHT22;37054;52.054;8.600;2022-08-01T06:16:47;26.40;65.60
51029;DHT22;37054;52.054;8.600;2022-08-01T06:19:12;26.40;65.70
51029;DHT22;37054;52.054;8.600;2022-08-01T06:21:38;26.40;65.30
51029;DHT22;37054;52.054;8.600;2022-08-01T06:24:03;26.40;65.40
51029;DHT22;37054;52.054;8.600;2022-08-01T06:26:29;26.40;65.50
51029;DHT22;37054;52.054;8.600;2022-08-01T06:28:56;26.50;65.60
51029;DHT22;37054;52.054;8.600;2022-08-01T06:31:21;26.50;65.50
51029;DHT22;37054;52.054;8.600;2022-08-01T06:33:47;26.60;65.50
51029;DHT22;37054;52.054;8.600;2022-08-01T06:36:12;26.60;65.40
51029;DHT22;37054;52.054;8.600;2022-08-01T06:38:38;26.60;65.00
51029;DHT22;37054;52.054;8.600;2022-08-01T06:41:12;26.60;65.20
51029;DHT22;37054;52.054;8.600;2022-08-01T06:43:37;26.70;65.40
51029;DHT22;37054;52.054;8.600;2022-08-01T06:46:03;26.70;65.50
51029;DHT22;37054;52.054;8.600;2022-08-01T06:48:29;26.70;65.50
51029;DHT22;37054;52.054;8.600;2022-08-01T06:50:54;26.70;65.20
51029;DHT22;37054;52.054;8.600;2022-08-01T06:53:33;26.70;65.00
51029;DHT22;37054;52.054;8.600;2022-08-01T06:55:59;26.70;64.70
51029;DHT22;37054;52.054;8.600;2022-08-01T06:58:24;26.60;64.10
51029;DHT22;37054;52.054;8.600;2022-08-01T07:00:50;26.50;63.90
51029;DHT22;37054;52.054;8.600;2022-08-01T07:03:15;26.40;63.40
51029;DHT22;37054;52.054;8.600;2022-08-01T07:05:58;26.30;63.00
51029;DHT22;37054;52.054;8.600;2022-08-01T07:08:40;26.20;63.10
51029;DHT22;37054;52.054;8.600;2022-08-01T07:11:05;26.20;63.60
51029;DHT22;37054;52.054;8.600;2022-08-01T07:13:31;26.20;63.20
51029;DHT22;37054;52.054;8.600;2022-08-01T07:15:57;26.20;63.40
51029;DHT22;37054;52.054;8.600;2022-08-01T07:18:23;26.30;64.00
51029;DHT22;37054;52.054;8.600;2022-08-01T07:20:48;26.40;63.60
51029;DHT22;37054;52.054;8.600;2022-08-01T07:23:22;26.40;63.90
51029;DHT22;37054;52.054;8.600;2022-08-01T07:25:48;26.50;64.20
51029;DHT22;37054;52.054;8.600;2022-08-01T07:28:14;26.60;64.00
51029;DHT22;37054;52.054;8.600;2022-08-01T07:30:46;26.70;63.50
51029;DHT22;37054;52.054;8.600;2022-08-01T07:33:12;26.70;62.70
51029;DHT22;37054;52.054;8.600;2022-08-01T07:35:37;26.60;62.70
51029;DHT22;37054;52.054;8.600;2022-08-01T07:38:08;26.60;62.90
51029;DHT22;37054;52.054;8.600;2022-08-01T07:40:33;26.60;62.30
51029;DHT22;37054;52.054;8.600;2022-08-01T07:42:59;26.70;62.90
51029;DHT22;37054;52.054;8.600;2022-08-01T07:45:25;26.80;63.50
51029;DHT22;37054;52.054;8.600;2022-08-01T07:47:52;26.90;63.90
51029;DHT22;37054;52.054;8.600;2022-08-01T07:50:17;27.00;64.00
51029;DHT22;37054;52.054;8.600;2022-08-01T07:52:43;27.10;64.00
51029;DHT22;37054;52.054;8.600;2022-08-01T07:55:09;27.10;64.40
51029;DHT22;37054;52.054;8.600;2022-08-01T07:57:38;27.20;64.90
51029;DHT22;37054;52.054;8.600;2022-08-01T08:00:04;27.50;65.10
51029;DHT22;37054;52.054;8.600;2022-08-01T08:02:31;27.80;65.20
51029;DHT22;37054;52.054;8.600;2022-08-01T08:04:56;28.20;65.30
51029;DHT22;37054;52.054;8.600;2022-08-01T08:07:22;28.60;65.50
51029;DHT22;37054;52.054;8.600;2022-08-01T08:09:47;29.00;65.10
51029;DHT22;37054;52.054;8.600;2022-08-01T08:12:12;29.30;64.70
51029;DHT22;37054;52.054;8.600;2022-08-01T08:14:40;29.50;63.40
51029;DHT22;37054;52.054;8.600;2022-08-01T08:17:05;29.70;62.80
51029;DHT22;37054;52.054;8.600;2022-08-01T08:19:31;29.90;61.70
51029;DHT22;37054;52.054;8.600;2022-08-01T08:22:01;30.10;61.90
51029;DHT22;37054;52.054;8.600;2022-08-01T08:24:27;30.30;61.70
51029;DHT22;37054;52.054;8.600;2022-08-01T08:26:54;30.30;61.00
51029;DHT22;37054;52.054;8.600;2022-08-01T08:29:20;30.40;60.00
51029;DHT22;37054;52.054;8.600;2022-08-01T08:31:46;30.40;58.50
51029;DHT22;37054;52.054;8.600;2022-08-01T08:34:12;30.50;59.70
51029;DHT22;37054;52.054;8.600;2022-08-01T08:36:37;30.60;58.90
51029;DHT22;37054;52.054;8.600;2022-08-01T08:39:03;30.70;59.10
51029;DHT22;37054;52.054;8.600;2022-08-01T08:41:29;30.90;59.20
51029;DHT22;37054;52.054;8.600;2022-08-01T08:43:56;31.20;59.80
51029;DHT22;37054;52.054;8.600;2022-08-01T08:46:23;31.50;59.80
51029;DHT22;37054;52.054;8.600;2022-08-01T08:48:49;31.70;59.30
51029;DHT22;37054;52.054;8.600;2022-08-01T08:51:16;31.80;57.70
51029;DHT22;37054;52.054;8.600;2022-08-01T08:53:43;31.70;55.70
51029;DHT22;37054;52.054;8.600;2022-08-01T08:56:13;31.50;55.80
51029;DHT22;37054;52.054;8.600;2022-08-01T08:58:40;31.40;55.80
51029;DHT22;37054;52.054;8.600;2022-08-01T09:01:06;31.50;55.70
51029;DHT22;37054;52.054;8.600;2022-08-01T09:03:34;31.30;52.20
51029;DHT22;37054;52.054;8.600;2022-08-01T09:05:59;31.00;50.80
51029;DHT22;37054;52.054;8.600;2022-08-01T09:08:28;30.70;51.10
51029;DHT22;37054;52.054;8.600;2022-08-01T09:10:54;30.50;51.80
51029;DHT22;37054;52.054;8.600;2022-08-01T09:13:19;30.30;51.20
51029;DHT22;37054;52.054;8.600;2022-08-01T09:15:52;30.10;51.40
51029;DHT22;37054;52.054;8.600;2022-08-01T09:23:34;30.30;52.10
51029;DHT22;37054;52.054;8.600;2022-08-01T09:26:00;30.50;53.00
51029;DHT22;37054;52.054;8.600;2022-08-01T09:28:29;30.70;52.50
51029;DHT22;37054;52.054;8.600;2022-08-01T09:30:58;30.80;51.60
51029;DHT22;37054;52.054;8.600;2022-08-01T09:33:24;30.80;51.60
51029;DHT22;37054;52.054;8.600;2022-08-01T09:35:56;31.00;51.10
51029;DHT22;37054;52.054;8.600;2022-08-01T09:38:22;31.10;50.50
51029;DHT22;37054;52.054;8.600;2022-08-01T09:43:13;31.50;48.30
51029;DHT22;37054;52.054;8.600;2022-08-01T09:45:39;31.80;48.00
51029;DHT22;37054;52.054;8.600;2022-08-01T09:48:08;32.30;48.80
51029;DHT22;37054;52.054;8.600;2022-08-01T09:50:40;32.70;47.30
51029;DHT22;37054;52.054;8.600;2022-08-01T09:53:07;33.20;47.10
51029;DHT22;37054;52.054;8.600;2022-08-01T09:55:33;33.60;46.70
51029;DHT22;37054;52.054;8.600;2022-08-01T09:58:08;34.20;46.50
51029;DHT22;37054;52.054;8.600;2022-08-01T10:00:37;34.70;46.30
51029;DHT22;37054;52.054;8.600;2022-08-01T10:03:22;35.40;47.30
51029;DHT22;37054;52.054;8.600;2022-08-01T10:05:48;36.30;46.20
51029;DHT22;37054;52.054;8.600;2022-08-01T10:08:14;36.80;42.60
51029;DHT22;37054;52.054;8.600;2022-08-01T10:10:40;36.70;40.10
51029;DHT22;37054;52.054;8.600;2022-08-01T10:13:06;36.30;38.60
51029;DHT22;37054;52.054;8.600;2022-08-01T10:15:33;35.80;38.40
51029;DHT22;37054;52.054;8.600;2022-08-01T10:18:02;35.40;38.30
51029;DHT22;37054;52.054;8.600;2022-08-01T10:20:30;35.00;38.40
51029;DHT22;37054;52.054;8.600;2022-08-01T10:22:57;34.70;38.70
51029;DHT22;37054;52.054;8.600;2022-08-01T10:25:31;34.30;38.60
51029;DHT22;37054;52.054;8.600;2022-08-01T10:27:58;34.00;38.90
51029;DHT22;37054;52.054;8.600;2022-08-01T10:30:25;33.80;39.70
51029;DHT22;37054;52.054;8.600;2022-08-01T10:32:51;33.50;39.30
51029;DHT22;37054;52.054;8.600;2022-08-01T10:35:22;33.20;39.40
51029;DHT22;37054;52.054;8.600;2022-08-01T10:37:48;32.80;38.80
51029;DHT22;37054;52.054;8.600;2022-08-01T10:40:16;32.60;39.30
51029;DHT22;37054;52.054;8.600;2022-08-01T10:42:42;32.90;40.60
51029;DHT22;37054;52.054;8.600;2022-08-01T10:45:09;33.60;39.40
51029;DHT22;37054;52.054;8.600;2022-08-01T10:47:38;34.30;39.00
51029;DHT22;37054;52.054;8.600;2022-08-01T10:53:03;35.20;36.80
51029;DHT22;37054;52.054;8.600;2022-08-01T10:55:44;35.30;35.80
51029;DHT22;37054;52.054;8.600;2022-08-01T10:58:10;35.30;35.50
51029;DHT22;37054;52.054;8.600;2022-08-01T11:00:38;35.30;36.20
51029;DHT22;37054;52.054;8.600;2022-08-01T11:03:03;35.30;36.40
51029;DHT22;37054;52.054;8.600;2022-08-01T11:05:34;35.10;35.50
51029;DHT22;37054;52.054;8.600;2022-08-01T11:08:07;34.80;34.90
51029;DHT22;37054;52.054;8.600;2022-08-01T11:10:36;34.50;34.90
51029;DHT22;37054;52.054;8.600;2022-08-01T11:13:02;34.20;34.80
51029;DHT22;37054;52.054;8.600;2022-08-01T11:15:35;34.00;35.30
51029;DHT22;37054;52.054;8.600;2022-08-01T11:18:02;33.80;35.70
51029;DHT22;37054;52.054;8.600;2022-08-01T11:20:33;33.90;36.30
51029;DHT22;37054;52.054;8.600;2022-08-01T11:38:38;33.50;35.90
51029;DHT22;37054;52.054;8.600;2022-08-01T11:41:20;33.40;35.80
51029;DHT22;37054;52.054;8.600;2022-08-01T11:51:56;33.10;36.10
51029;DHT22;37054;52.054;8.600;2022-08-01T11:54:30;33.00;36.10
51029;DHT22;37054;52.054;8.600;2022-08-01T11:56:57;33.00;36.60
51029;DHT22;37054;52.054;8.600;2022-08-01T11:59:23;33.20;37.30
51029;DHT22;37054;52.054;8.600;2022-08-01T12:01:49;33.30;37.10
51029;DHT22;37054;52.054;8.600;2022-08-01T12:04:15;33.40;36.10
51029;DHT22;37054;52.054;8.600;2022-08-01T12:06:43;33.40;36.60
51029;DHT22;37054;52.054;8.600;2022-08-01T12:09:16;33.50;37.00
51029;DHT22;37054;52.054;8.600;2022-08-01T12:11:43;33.50;36.20
51029;DHT22;37054;52.054;8.600;2022-08-01T12:14:08;33.30;35.60
51029;DHT22;37054;52.054;8.600;2022-08-01T12:16:34;33.20;35.70
51029;DHT22;37054;52.054;8.600;2022-08-01T12:19:00;33.00;35.50
51029;DHT22;37054;52.054;8.600;2022-08-01T12:21:25;32.80;36.10
51029;DHT22;37054;52.054;8.600;2022-08-01T12:24:03;32.80;36.10
51029;DHT22;37054;52.054;8.600;2022-08-01T12:26:39;32.80;36.30
51029;DHT22;37054;52.054;8.600;2022-08-01T12:29:04;32.70;36.10
51029;DHT22;37054;52.054;8.600;2022-08-01T12:31:34;32.50;36.10
51029;DHT22;37054;52.054;8.600;2022-08-01T12:34:45;32.40;36.60
51029;DHT22;37054;52.054;8.600;2022-08-01T12:36:46;32.30;36.70
51029;DHT22;37054;52.054;8.600;2022-08-01T12:39:11;32.10;36.70
51029;DHT22;37054;52.054;8.600;2022-08-01T12:41:37;32.00;37.20
51029;DHT22;37054;52.054;8.600;2022-08-01T12:44:04;31.90;37.30
51029;DHT22;37054;52.054;8.600;2022-08-01T12:46:39;31.80;37.40
51029;DHT22;37054;52.054;8.600;2022-08-01T12:49:04;31.80;37.90
51029;DHT22;37054;52.054;8.600;2022-08-01T12:51:33;31.80;38.10
51029;DHT22;37054;52.054;8.600;2022-08-01T12:54:01;31.90;38.30
51029;DHT22;37054;52.054;8.600;2022-08-01T12:56:30;31.90;38.40
51029;DHT22;37054;52.054;8.600;2022-08-01T12:58:56;32.00;38.60
51029;DHT22;37054;52.054;8.600;2022-08-01T13:01:25;32.00;38.80
51029;DHT22;37054;52.054;8.600;2022-08-01T13:03:58;32.10;38.90
51029;DHT22;37054;52.054;8.600;2022-08-01T13:06:24;32.20;39.00
51029;DHT22;37054;52.054;8.600;2022-08-01T13:08:53;32.20;38.90
51029;DHT22;37054;52.054;8.600;2022-08-01T13:11:20;32.20;38.70
51029;DHT22;37054;52.054;8.600;2022-08-01T13:13:49;32.30;38.80
51029;DHT22;37054;52.054;8.600;2022-08-01T13:16:16;32.40;38.70
51029;DHT22;37054;52.054;8.600;2022-08-01T13:18:47;32.50;38.70
51029;DHT22;37054;52.054;8.600;2022-08-01T13:21:14;32.70;38.60
51029;DHT22;37054;52.054;8.600;2022-08-01T13:23:41;33.00;38.50
51029;DHT22;37054;52.054;8.600;2022-08-01T13:26:07;33.20;38.00
51029;DHT22;37054;52.054;8.600;2022-08-01T13:28:32;33.40;37.90
51029;DHT22;37054;52.054;8.600;2022-08-01T13:30:59;33.60;37.00
51029;DHT22;37054;52.054;8.600;2022-08-01T13:33:27;33.80;36.90
51029;DHT22;37054;52.054;8.600;2022-08-01T13:35:54;33.90;36.60
51029;DHT22;37054;52.054;8.600;2022-08-01T13:38:20;34.20;35.60
51029;DHT22;37054;52.054;8.600;2022-08-01T13:40:45;34.30;35.20
51029;DHT22;37054;52.054;8.600;2022-08-01T13:43:11;34.50;35.20
51029;DHT22;37054;52.054;8.600;2022-08-01T13:45:36;34.70;35.10
51029;DHT22;37054;52.054;8.600;2022-08-01T13:48:04;34.80;34.20
51029;DHT22;37054;52.054;8.600;2022-08-01T13:50:29;34.80;32.80
51029;DHT22;37054;52.054;8.600;2022-08-01T13:52:55;34.70;32.50
51029;DHT22;37054;52.054;8.600;2022-08-01T13:55:20;34.70;32.50
51029;DHT22;37054;52.054;8.600;2022-08-01T13:57:46;34.70;32.00
51029;DHT22;37054;52.054;8.600;2022-08-01T14:00:11;34.70;32.20
51029;DHT22;37054;52.054;8.600;2022-08-01T14:02:37;34.70;31.50
51029;DHT22;37054;52.054;8.600;2022-08-01T14:05:02;34.50;31.10
51029;DHT22;37054;52.054;8.600;2022-08-01T14:07:28;34.40;31.20
51029;DHT22;37054;52.054;8.600;2022-08-01T14:09:54;34.30;30.80
51029;DHT22;37054;52.054;8.600;2022-08-01T14:12:19;34.20;30.90
51029;DHT22;37054;52.054;8.600;2022-08-01T14:14:45;34.10;31.00
51029;DHT22;37054;52.054;8.600;2022-08-01T14:17:10;34.10;31.20
51029;DHT22;37054;52.054;8.600;2022-08-01T14:19:36;34.10;31.40
51029;DHT22;37054;52.054;8.600;2022-08-01T14:22:01;34.10;31.60
51029;DHT22;37054;52.054;8.600;2022-08-01T14:24:27;34.00;31.00
51029;DHT22;37054;52.054;8.600;2022-08-01T14:26:53;33.90;31.20
51029;DHT22;37054;52.054;8.600;2022-08-01T14:29:18;34.00;31.60
51029;DHT22;37054;52.054;8.600;2022-08-01T14:31:44;34.10;31.80
51029;DHT22;37054;52.054;8.600;2022-08-01T14:34:09;34.10;31.70
51029;DHT22;37054;52.054;8.600;2022-08-01T14:36:35;34.00;31.00
51029;DHT22;37054;52.054;8.600;2022-08-01T14:39:00;33.90;31.10
51029;DHT22;37054;52.054;8.600;2022-08-01T14:41:26;33.80;31.10
51029;DHT22;37054;52.054;8.600;2022-08-01T14:43:52;33.70;31.60
51029;DHT22;37054;52.054;8.600;2022-08-01T14:46:17;33.80;31.50
51029;DHT22;37054;52.054;8.600;2022-08-01T14:48:44;33.70;31.20
51029;DHT22;37054;52.054;8.600;2022-08-01T14:51:09;33.60;31.50
51029;DHT22;37054;52.054;8.600;2022-08-01T14:53:35;33.70;31.80
51029;DHT22;37054;52.054;8.600;2022-08-01T14:56:02;33.80;31.80
51029;DHT22;37054;52.054;8.600;2022-08-01T14:58:28;33.90;31.60
51029;DHT22;37054;52.054;8.600;2022-08-01T15:00:53;33.90;31.40
51029;DHT22;37054;52.054;8.600;2022-08-01T15:03:20;33.80;31.40
51029;DHT22;37054;52.054;8.600;2022-08-01T15:05:45;33.80;31.80
51029;DHT22;37054;52.054;8.600;2022-08-01T15:08:11;33.80;31.80
51029;DHT22;37054;52.054;8.600;2022-08-01T15:10:36;33.70;31.60
51029;DHT22;37054;52.054;8.600;2022-08-01T15:13:02;33.60;31.70
51029;DHT22;37054;52.054;8.600;2022-08-01T15:15:27;33.50;31.80
51029;DHT22;37054;52.054;8.600;2022-08-01T15:17:53;33.50;31.90
51029;DHT22;37054;52.054;8.600;2022-08-01T15:20:18;33.50;31.70
51029;DHT22;37054;52.054;8.600;2022-08-01T15:22:47;33.40;31.70
51029;DHT22;37054;52.054;8.600;2022-08-01T15:25:13;33.30;31.80
51029;DHT22;37054;52.054;8.600;2022-08-01T15:27:39;33.30;32.00
51029;DHT22;37054;52.054;8.600;2022-08-01T15:30:07;33.20;32.20
51029;DHT22;37054;52.054;8.600;2022-08-01T15:32:33;33.10;32.20
51029;DHT22;37054;52.054;8.600;2022-08-01T15:35:05;33.00;32.10
51029;DHT22;37054;52.054;8.600;2022-08-01T15:37:31;32.90;32.40
51029;DHT22;37054;52.054;8.600;2022-08-01T15:39:56;32.90;32.60
51029;DHT22;37054;52.054;8.600;2022-08-01T15:42:25;32.90;32.70
51029;DHT22;37054;52.054;8.600;2022-08-01T15:44:51;33.00;32.80
51029;DHT22;37054;52.054;8.600;2022-08-01T15:47:16;33.10;32.40
51029;DHT22;37054;52.054;8.600;2022-08-01T15:49:42;33.10;32.60
51029;DHT22;37054;52.054;8.600;2022-08-01T15:52:08;33.20;32.50
51029;DHT22;37054;52.054;8.600;2022-08-01T15:54:33;33.10;32.80
51029;DHT22;37054;52.054;8.600;2022-08-01T15:57:02;33.20;32.60
51029;DHT22;37054;52.054;8.600;2022-08-01T15:59:28;33.20;32.70
51029;DHT22;37054;52.054;8.600;2022-08-01T16:01:54;33.20;32.70
51029;DHT22;37054;52.054;8.600;2022-08-01T16:04:19;33.30;32.50
51029;DHT22;37054;52.054;8.600;2022-08-01T16:06:45;33.30;32.30
51029;DHT22;37054;52.054;8.600;2022-08-01T16:09:11;33.30;32.40